createdAt,value
2022-12-07T00:00:55.637Z,99020.53
2022-12-07T00:03:23.110Z,99017.06
2022-12-07T00:05:50.242Z,99021.22
2022-12-07T00:08:17.489Z,99021.44
2022-12-07T00:10:44.947Z,99017.16
2022-12-07T00:13:12.099Z,99014.66
2022-12-07T00:15:39.259Z,99012.78
2022-12-07T00:18:06.724Z,99003.19
2022-12-07T00:20:34.200Z,98993.91
2022-12-07T00:23:01.409Z,98989.56
2022-12-07T00:25:28.844Z,99000.53
2022-12-07T00:27:57.566Z,98994.31
2022-12-07T00:30:24.940Z,98997.19
2022-12-07T00:32:52.391Z,98983.53
2022-12-07T00:35:19.534Z,98991.25
2022-12-07T00:37:46.650Z,98986.94
2022-12-07T00:40:14.111Z,98987.91
2022-12-07T00:42:41.239Z,98988.72
2022-12-07T00:45:08.761Z,98982.00
2022-12-07T00:47:36.180Z,98985.47
2022-12-07T00:50:03.545Z,98989.81
2022-12-07T00:52:31.020Z,98988.72
2022-12-07T00:54:58.420Z,98988.63
2022-12-07T00:57:25.571Z,98986.06
2022-12-07T00:59:58.769Z,98981.75
2022-12-07T01:02:26.324Z,98983.59
2022-12-07T01:04:53.454Z,98983.53
2022-12-07T01:07:20.676Z,98987.00
2022-12-07T01:09:48.083Z,98977.50
2022-12-07T01:12:15.213Z,98974.13
2022-12-07T01:14:42.595Z,98979.47
2022-12-07T01:17:10.045Z,98982.72
2022-12-07T01:19:37.330Z,98967.88
2022-12-07T01:22:04.461Z,98968.03
2022-12-07T01:24:31.867Z,98975.84
2022-12-07T01:26:59.003Z,98974.19
2022-12-07T01:29:26.142Z,98975.78
2022-12-07T01:31:53.555Z,98973.91
2022-12-07T01:34:20.708Z,98972.34
2022-12-07T01:36:47.792Z,98968.69
2022-12-07T01:39:15.228Z,98965.41
2022-12-07T01:41:44.632Z,98976.62
2022-12-07T01:44:22.578Z,98977.91
2022-12-07T01:46:51.105Z,98981.41
2022-12-07T01:49:29.554Z,98978.28
2022-12-07T01:51:59.497Z,98970.47
2022-12-07T01:54:26.626Z,98969.56
2022-12-07T01:56:54.577Z,98963.66
2022-12-07T01:59:23.144Z,98960.28
2022-12-07T02:01:50.353Z,98956.03
2022-12-07T02:04:17.862Z,98955.09
2022-12-07T02:06:45.036Z,98949.09
2022-12-07T02:09:13.156Z,98956.09
2022-12-07T02:11:41.024Z,98953.44
2022-12-07T02:14:08.148Z,98950.13
2022-12-07T02:17:04.477Z,98949.28
2022-12-07T02:19:50.785Z,98954.31
2022-12-07T02:22:23.633Z,98955.38
2022-12-07T02:24:55.492Z,98958.78
2022-12-07T02:27:25.687Z,98954.38
2022-12-07T02:29:55.858Z,98962.09
2022-12-07T02:32:24.791Z,98953.56
2022-12-07T02:34:53.545Z,98950.09
2022-12-07T02:37:39.740Z,98953.69
2022-12-07T02:40:21.059Z,98955.34
2022-12-07T02:42:50.655Z,98954.31
2022-12-07T02:45:18.799Z,98948.34
2022-12-07T02:47:46.817Z,98951.78
2022-12-07T02:50:14.227Z,98946.56
2022-12-07T02:52:41.373Z,98947.50
2022-12-07T02:55:08.633Z,98951.91
2022-12-07T02:57:39.299Z,98944.94
2022-12-07T03:00:08.142Z,98943.31
2022-12-07T03:02:47.869Z,98938.12
2022-12-07T03:05:44.433Z,98945.12
2022-12-07T03:08:16.538Z,98933.81
2022-12-07T03:10:46.719Z,98944.16
2022-12-07T03:13:20.500Z,98947.69
2022-12-07T03:15:48.793Z,98938.19
2022-12-07T03:18:17.398Z,98941.69
2022-12-07T03:20:44.528Z,98933.00
2022-12-07T03:23:11.647Z,98930.41
2022-12-07T03:25:42.435Z,98919.09
2022-12-07T03:28:09.558Z,98926.00
2022-12-07T03:30:55.704Z,98923.47
2022-12-07T03:33:24.139Z,98926.13
2022-12-07T03:35:53.730Z,98924.41
2022-12-07T03:38:21.844Z,98933.94
2022-12-07T03:40:53.235Z,98926.13
2022-12-07T03:43:20.378Z,98926.97
2022-12-07T03:46:06.470Z,98931.31
2022-12-07T03:48:38.329Z,98938.25
2022-12-07T03:51:05.421Z,98935.66
2022-12-07T03:53:40.993Z,98939.97
2022-12-07T03:56:09.653Z,98940.84
2022-12-07T03:58:37.763Z,98945.16
2022-12-07T04:01:04.919Z,98933.91
2022-12-07T04:03:32.324Z,98939.91
2022-12-07T04:05:59.890Z,98933.91
2022-12-07T04:08:27.065Z,98945.12
2022-12-07T04:10:54.467Z,98946.91
2022-12-07T04:13:21.603Z,98946.00
2022-12-07T04:15:48.759Z,98941.63
2022-12-07T04:18:16.188Z,98935.63
2022-12-07T04:20:43.359Z,98933.03
2022-12-07T04:23:10.480Z,98936.53
2022-12-07T04:25:37.893Z,98939.97
2022-12-07T04:28:05.124Z,98933.91
2022-12-07T04:30:32.280Z,98935.66
2022-12-07T04:32:59.751Z,98944.34
2022-12-07T04:35:26.863Z,98944.03
2022-12-07T04:37:54.014Z,98943.22
2022-12-07T04:40:21.433Z,98941.66
2022-12-07T04:42:48.632Z,98945.09
2022-12-07T04:45:15.795Z,98941.59
2022-12-07T04:47:43.204Z,98944.75
2022-12-07T04:50:10.624Z,98956.69
2022-12-07T04:52:37.761Z,98952.47
2022-12-07T04:55:05.347Z,98951.75
2022-12-07T04:57:32.477Z,98949.34
2022-12-07T04:59:59.946Z,98963.00
2022-12-07T05:02:27.719Z,98960.97
2022-12-07T05:04:54.886Z,98956.41
2022-12-07T05:07:22.221Z,98961.69
2022-12-07T05:09:49.685Z,98963.69
2022-12-07T05:12:16.830Z,98960.22
2022-12-07T05:14:43.993Z,98961.62
2022-12-07T05:17:12.579Z,98955.75
2022-12-07T05:19:39.723Z,98960.03
2022-12-07T05:22:06.882Z,98948.25
2022-12-07T05:24:34.308Z,98943.94
2022-12-07T05:27:01.436Z,98954.44
2022-12-07T05:29:28.560Z,98946.78
2022-12-07T05:31:56.055Z,98945.06
2022-12-07T05:34:23.369Z,98941.63
2022-12-07T05:36:51.406Z,98938.22
2022-12-07T05:39:18.843Z,98930.47
2022-12-07T05:42:04.829Z,98933.06
2022-12-07T05:44:32.233Z,98931.34
2022-12-07T05:46:59.380Z,98934.78
2022-12-07T05:49:26.511Z,98939.97
2022-12-07T05:51:53.931Z,98938.22
2022-12-07T05:54:21.872Z,98940.87
2022-12-07T05:56:49.012Z,98938.28
2022-12-07T05:59:25.408Z,98938.28
2022-12-07T06:01:59.920Z,98940.00
2022-12-07T06:04:28.363Z,98937.41
2022-12-07T06:06:55.524Z,98950.41
2022-12-07T06:09:23.540Z,98940.87
2022-12-07T06:12:09.763Z,98936.53
2022-12-07T06:14:38.227Z,98947.81
2022-12-07T06:17:05.900Z,98938.25
2022-12-07T06:19:33.275Z,98943.44
2022-12-07T06:22:00.407Z,98939.13
2022-12-07T06:24:27.854Z,98944.34
2022-12-07T06:26:55.029Z,98946.06
2022-12-07T06:29:23.037Z,98947.81
2022-12-07T06:31:50.461Z,98946.94
2022-12-07T06:34:19.106Z,98959.94
2022-12-07T06:36:46.788Z,98950.41
2022-12-07T06:39:14.275Z,98946.94
2022-12-07T06:41:41.442Z,98950.41
2022-12-07T06:44:08.714Z,98951.28
2022-12-07T06:46:39.038Z,98954.72
2022-12-07T06:49:06.260Z,98953.88
2022-12-07T06:51:33.705Z,98965.16
2022-12-07T06:54:01.099Z,98966.00
2022-12-07T06:56:28.267Z,98961.69
2022-12-07T06:58:55.428Z,98966.03
2022-12-07T07:01:22.958Z,98969.47
2022-12-07T07:03:50.225Z,98968.59
2022-12-07T07:06:17.369Z,98967.75
2022-12-07T07:08:48.423Z,98971.22
2022-12-07T07:11:18.259Z,98969.50
2022-12-07T07:13:51.823Z,98964.28
2022-12-07T07:16:19.119Z,98960.81
2022-12-07T07:18:46.586Z,98962.56
2022-12-07T07:21:13.713Z,98968.59
2022-12-07T07:23:40.900Z,98971.22
2022-12-07T07:26:08.361Z,98966.88
2022-12-07T07:28:36.584Z,98973.78
2022-12-07T07:31:04.207Z,98974.69
2022-12-07T07:33:31.661Z,98972.09
2022-12-07T07:35:58.771Z,98972.97
2022-12-07T07:38:27.077Z,98974.69
2022-12-07T07:40:54.554Z,98975.56
2022-12-07T07:43:21.689Z,98970.38
2022-12-07T07:45:48.905Z,98969.50
2022-12-07T07:48:17.453Z,98966.91
2022-12-07T07:50:44.567Z,98972.97
2022-12-07T07:53:11.731Z,98969.47
2022-12-07T07:55:39.156Z,98972.94
2022-12-07T07:58:06.310Z,98974.69
2022-12-07T08:00:33.469Z,98972.94
2022-12-07T08:03:00.891Z,98974.59
2022-12-07T08:05:28.057Z,98972.06
2022-12-07T08:07:55.332Z,98973.81
2022-12-07T08:10:22.847Z,98974.69
2022-12-07T08:13:08.831Z,98972.84
2022-12-07T08:15:37.208Z,98982.47
2022-12-07T08:18:04.431Z,98986.28
2022-12-07T08:20:32.369Z,98987.25
2022-12-07T08:22:59.997Z,98985.88
2022-12-07T08:25:27.433Z,98986.81
2022-12-07T08:27:54.736Z,98985.94
2022-12-07T08:30:22.773Z,98986.81
2022-12-07T08:32:49.913Z,98979.91
2022-12-07T08:35:17.287Z,98989.44
2022-12-07T08:37:44.858Z,98984.22
2022-12-07T08:40:16.038Z,98990.16
2022-12-07T08:42:45.505Z,98985.06
2022-12-07T08:45:13.825Z,98990.25
2022-12-07T08:47:46.028Z,98996.09
2022-12-07T08:50:13.469Z,98986.66
2022-12-07T08:52:40.839Z,98995.97
2022-12-07T08:55:08.203Z,99004.13
2022-12-07T08:57:35.631Z,98998.41
2022-12-07T09:00:03.899Z,98992.84
2022-12-07T09:02:32.035Z,98994.31
2022-12-07T09:04:59.456Z,98995.16
2022-12-07T09:07:26.582Z,98991.00
2022-12-07T09:09:53.709Z,99001.06
2022-12-07T09:12:21.242Z,98995.19
2022-12-07T09:14:48.356Z,98998.03
2022-12-07T09:17:15.583Z,98996.84
2022-12-07T09:19:43.554Z,98997.06
2022-12-07T09:22:10.825Z,98993.50
2022-12-07T09:24:37.985Z,98994.37
2022-12-07T09:27:05.589Z,98992.38
2022-12-07T09:29:32.692Z,98986.97
2022-12-07T09:31:59.926Z,98993.44
2022-12-07T09:34:27.763Z,98986.87
2022-12-07T09:36:54.957Z,98996.53
2022-12-07T09:39:22.139Z,98982.59
2022-12-07T09:41:49.546Z,98975.72
2022-12-07T09:44:22.964Z,98974.38
2022-12-07T09:46:51.739Z,98978.88
2022-12-07T09:49:19.683Z,98977.56
2022-12-07T09:51:46.836Z,98979.00
2022-12-07T09:54:14.643Z,98970.97
2022-12-07T09:56:41.797Z,98978.47
2022-12-07T09:59:18.521Z,98974.03
2022-12-07T10:01:48.124Z,98969.75
2022-12-07T10:04:22.858Z,98979.87
2022-12-07T10:06:52.096Z,98979.00
2022-12-07T10:09:20.712Z,98972.91
2022-12-07T10:12:00.117Z,98972.75
2022-12-07T10:14:44.426Z,98970.06
2022-12-07T10:17:36.298Z,98962.25
2022-12-07T10:20:12.571Z,98965.31
2022-12-07T10:22:39.719Z,98963.13
2022-12-07T10:25:10.520Z,98956.41
2022-12-07T10:27:37.637Z,98960.09
2022-12-07T10:30:08.432Z,98952.97
2022-12-07T10:32:36.271Z,98958.50
2022-12-07T10:35:32.684Z,98949.19
2022-12-07T10:38:00.393Z,98954.13
2022-12-07T10:40:30.580Z,98956.72
2022-12-07T10:43:03.561Z,98954.06
2022-12-07T10:45:31.049Z,98960.25
2022-12-07T10:48:17.091Z,98950.69
2022-12-07T10:50:53.822Z,98948.38
2022-12-07T10:53:39.248Z,98949.37
2022-12-07T10:56:09.715Z,98944.25
2022-12-07T10:58:39.599Z,98941.56
2022-12-07T11:01:22.498Z,98947.28
2022-12-07T11:04:08.617Z,98951.06
2022-12-07T11:06:37.687Z,98944.03
2022-12-07T11:09:17.383Z,98936.47
2022-12-07T11:11:44.768Z,98929.56
2022-12-07T11:14:44.026Z,98935.53
2022-12-07T11:17:15.669Z,98930.97
2022-12-07T11:20:02.971Z,98928.69
2022-12-07T11:22:36.764Z,98923.53
2022-12-07T11:25:14.952Z,98919.22
2022-12-07T11:27:45.207Z,98926.59
2022-12-07T11:30:21.847Z,98924.34
2022-12-07T11:32:58.903Z,98927.28
2022-12-07T11:35:36.193Z,98924.53
2022-12-07T11:38:09.498Z,98924.44
2022-12-07T11:40:37.187Z,98924.22
2022-12-07T11:43:07.657Z,98929.72
2022-12-07T11:45:35.451Z,98920.84
2022-12-07T11:48:03.614Z,98938.97
2022-12-07T11:50:34.017Z,98928.25
2022-12-07T11:53:01.173Z,98927.34
2022-12-07T11:55:28.341Z,98928.59
2022-12-07T11:58:05.093Z,98927.50
2022-12-07T12:00:32.225Z,98928.38
2022-12-07T12:03:01.535Z,98924.53
2022-12-07T12:05:29.392Z,98927.63
2022-12-07T12:11:19.477Z,98913.69
2022-12-07T12:16:52.365Z,98902.50
2022-12-07T12:19:34.047Z,98902.53
2022-12-07T12:22:10.664Z,98892.62
2022-12-07T12:24:37.804Z,98880.75
2022-12-07T12:27:06.455Z,98882.34
2022-12-07T12:29:42.883Z,98884.44
2022-12-07T12:32:18.461Z,98880.97
2022-12-07T12:34:50.876Z,98879.25
2022-12-07T12:37:33.834Z,98873.22
2022-12-07T12:40:28.430Z,98869.72
2022-12-07T12:42:56.555Z,98874.75
2022-12-07T12:45:26.686Z,98873.22
2022-12-07T12:47:55.208Z,98869.56
2022-12-07T12:50:32.613Z,98875.81
2022-12-07T12:53:01.314Z,98860.22
2022-12-07T12:55:44.391Z,98864.53
2022-12-07T12:58:20.654Z,98871.50
2022-12-07T13:00:48.510Z,98856.75
2022-12-07T13:03:27.119Z,98877.59
2022-12-07T13:06:13.352Z,98868.84
2022-12-07T13:08:41.789Z,98879.00
2022-12-07T13:11:18.999Z,98873.84
2022-12-07T13:13:46.161Z,98871.47
2022-12-07T13:16:13.619Z,98874.66
2022-12-07T13:18:40.844Z,98885.22
2022-12-07T13:21:07.958Z,98881.69
2022-12-07T13:23:38.176Z,98886.22
2022-12-07T13:26:34.812Z,98881.06
2022-12-07T13:29:08.410Z,98884.47
2022-12-07T13:31:38.283Z,98878.38
2022-12-07T13:34:06.689Z,98873.97
2022-12-07T13:36:36.700Z,98874.03
2022-12-07T13:39:18.877Z,98873.25
2022-12-07T13:41:49.683Z,98872.34
2022-12-07T13:44:17.013Z,98884.47
2022-12-07T13:47:02.660Z,98880.19
2022-12-07T13:49:31.209Z,98897.31
2022-12-07T13:52:15.715Z,98892.00
2022-12-07T13:54:47.412Z,98891.66
2022-12-07T13:57:14.583Z,98881.88
2022-12-07T13:59:41.727Z,98892.81
2022-12-07T14:02:22.755Z,98895.34
2022-12-07T14:04:51.499Z,98903.16
2022-12-07T14:07:22.899Z,98891.97
2022-12-07T14:09:57.388Z,98887.06
2022-12-07T14:12:25.252Z,98883.66
2022-12-07T14:14:52.666Z,98892.28
2022-12-07T14:17:20.321Z,98889.69
2022-12-07T14:20:10.547Z,98893.16
2022-12-07T14:22:38.615Z,98896.63
2022-12-07T14:25:14.807Z,98900.81
2022-12-07T14:27:48.659Z,98899.12
2022-12-07T14:30:16.465Z,98893.91
2022-12-07T14:32:49.328Z,98896.41
2022-12-07T14:35:17.365Z,98883.31
2022-12-07T14:37:46.447Z,98895.59
2022-12-07T14:40:14.682Z,98888.59
2022-12-07T14:42:41.898Z,98889.50
2022-12-07T14:45:14.447Z,98889.50
2022-12-07T14:50:29.358Z,98901.63
2022-12-07T14:55:45.236Z,98910.31
2022-12-07T14:58:16.351Z,98912.22
2022-12-07T15:00:43.659Z,98907.03
2022-12-07T15:03:11.388Z,98911.25
2022-12-07T15:05:38.693Z,98908.63
2022-12-07T15:08:06.099Z,98911.28
2022-12-07T15:10:34.418Z,98914.69
2022-12-07T15:13:21.216Z,98919.91
2022-12-07T15:15:49.670Z,98927.78
2022-12-07T15:18:17.143Z,98930.31
2022-12-07T15:20:44.558Z,98934.78
2022-12-07T15:23:12.364Z,98928.72
2022-12-07T15:25:46.178Z,98931.25
2022-12-07T15:28:13.793Z,98939.03
2022-12-07T15:30:41.906Z,98937.31
2022-12-07T15:33:09.184Z,98938.22
2022-12-07T15:35:43.569Z,98939.94
2022-12-07T15:38:10.706Z,98931.25
2022-12-07T15:40:38.136Z,98941.72
2022-12-07T15:43:05.301Z,98938.25
2022-12-07T15:45:32.440Z,98944.28
2022-12-07T15:48:27.434Z,98946.03
2022-12-07T15:50:47.080Z,98951.28
2022-12-07T15:53:15.502Z,98943.50
2022-12-07T15:55:42.612Z,98948.66
2022-12-07T15:58:09.748Z,98946.94
2022-12-07T16:00:37.181Z,98940.00
2022-12-07T16:03:04.644Z,98957.34
2022-12-07T16:05:31.796Z,98947.81
2022-12-07T16:07:59.205Z,98943.47
2022-12-07T16:10:27.330Z,98948.66
2022-12-07T16:12:54.454Z,98937.41
2022-12-07T16:15:24.595Z,98952.16
2022-12-07T16:17:52.440Z,98941.75
2022-12-07T16:20:19.667Z,98940.00
2022-12-07T16:22:46.768Z,98951.22
2022-12-07T16:25:14.174Z,98940.84
2022-12-07T16:27:41.330Z,98946.84
2022-12-07T16:30:08.693Z,98944.28
2022-12-07T16:32:36.177Z,98942.53
2022-12-07T16:35:03.997Z,98940.84
2022-12-07T16:37:31.342Z,98940.78
2022-12-07T16:39:58.793Z,98937.31
2022-12-07T16:42:26.360Z,98946.88
2022-12-07T16:44:53.565Z,98952.03
2022-12-07T16:47:21.000Z,98948.56
2022-12-07T16:49:48.835Z,98950.25
2022-12-07T16:52:20.375Z,98940.56
2022-12-07T16:54:49.481Z,98946.66
2022-12-07T16:57:22.581Z,98953.47
2022-12-07T16:59:51.674Z,98940.56
2022-12-07T17:02:19.116Z,98945.72
2022-12-07T17:04:46.336Z,98939.72
2022-12-07T17:07:14.254Z,98954.28
2022-12-07T17:09:41.476Z,98956.19
2022-12-07T17:12:08.693Z,98957.03
2022-12-07T17:14:54.797Z,98956.19
2022-12-07T17:17:21.946Z,98950.94
2022-12-07T17:19:49.808Z,98956.97
2022-12-07T17:22:16.977Z,98964.63
2022-12-07T17:24:44.089Z,98968.00
2022-12-07T17:27:13.161Z,98964.41
2022-12-07T17:29:40.291Z,98978.88
2022-12-07T17:32:07.816Z,98976.56
2022-12-07T17:34:35.339Z,98969.63
2022-12-07T17:37:03.584Z,98981.91
2022-12-07T17:39:30.774Z,98981.91
2022-12-07T17:42:17.114Z,98980.13
2022-12-07T17:44:44.841Z,98987.16
2022-12-07T17:47:12.374Z,98983.50
2022-12-07T17:49:39.564Z,98992.81
2022-12-07T17:52:25.638Z,98985.19
2022-12-07T17:54:53.557Z,98977.50
2022-12-07T17:57:21.316Z,98986.94
2022-12-07T17:59:48.528Z,98995.94
2022-12-07T18:02:16.367Z,98990.66
2022-12-07T18:04:44.218Z,98998.97
2022-12-07T18:07:11.626Z,99001.56
2022-12-07T18:09:39.170Z,98989.47
2022-12-07T18:12:06.898Z,98991.84
2022-12-07T18:14:34.782Z,98994.87
2022-12-07T18:17:02.570Z,98985.84
2022-12-07T18:19:31.005Z,98990.06
2022-12-07T18:21:59.003Z,98985.28
2022-12-07T18:24:33.265Z,98990.31
2022-12-07T18:27:07.829Z,98984.38
2022-12-07T18:29:36.515Z,98993.00
2022-12-07T18:32:05.445Z,98991.12
2022-12-07T18:34:33.673Z,98988.47
2022-12-07T18:37:01.486Z,98981.69
2022-12-07T18:39:33.728Z,98993.09
2022-12-07T18:42:01.885Z,98992.12
2022-12-07T18:44:31.819Z,98996.03
2022-12-07T18:47:01.020Z,98999.00
2022-12-07T18:49:28.350Z,98991.16
2022-12-07T18:51:56.433Z,98996.38
2022-12-07T18:54:24.003Z,99001.28
2022-12-07T18:56:54.803Z,99001.25
2022-12-07T18:59:41.197Z,98996.03
2022-12-07T19:02:10.875Z,98995.19
2022-12-07T19:04:40.279Z,99001.47
2022-12-07T19:07:07.953Z,99008.16
2022-12-07T19:09:36.102Z,99011.53
2022-12-07T19:12:05.947Z,99005.56
2022-12-07T19:14:34.877Z,99004.78
2022-12-07T19:17:04.605Z,99009.16
2022-12-07T19:19:34.054Z,99007.25
2022-12-07T19:22:02.036Z,99012.25
2022-12-07T19:24:30.114Z,99009.41
2022-12-07T19:26:59.390Z,99010.72
2022-12-07T19:29:33.171Z,99012.66
2022-12-07T19:32:04.252Z,99011.22
2022-12-07T19:34:32.500Z,99007.09
2022-12-07T19:37:00.647Z,99005.22
2022-12-07T19:39:28.826Z,99004.47
2022-12-07T19:41:57.507Z,98995.03
2022-12-07T19:44:27.632Z,98993.47
2022-12-07T19:47:02.708Z,98998.66
2022-12-07T19:49:35.186Z,99001.06
2022-12-07T19:52:05.135Z,99002.81
2022-12-07T19:54:33.216Z,99008.00
2022-12-07T19:57:01.276Z,99001.38
2022-12-07T19:59:30.259Z,98998.69
2022-12-07T20:01:58.534Z,99006.56
2022-12-07T20:04:29.991Z,99007.97
2022-12-07T20:06:59.765Z,99016.72
2022-12-07T20:09:29.821Z,99015.97
2022-12-07T20:12:16.937Z,99023.47
2022-12-07T20:14:46.935Z,99020.81
2022-12-07T20:17:15.165Z,99018.37
2022-12-07T20:19:43.791Z,99023.59
2022-12-07T20:22:12.476Z,99020.09
2022-12-07T20:24:42.809Z,99033.19
2022-12-07T20:27:10.757Z,99027.31
2022-12-07T20:29:39.034Z,99033.03
2022-12-07T20:32:09.372Z,99032.34
2022-12-07T20:34:45.097Z,99034.84
2022-12-07T20:37:13.202Z,99030.44
2022-12-07T20:39:42.003Z,99035.03
2022-12-07T20:42:29.947Z,99033.19
2022-12-07T20:45:02.952Z,99030.84
2022-12-07T20:47:32.323Z,99034.75
2022-12-07T20:50:00.046Z,99033.84
2022-12-07T20:52:27.320Z,99032.25
2022-12-07T20:54:54.835Z,99040.50
2022-12-07T20:57:23.218Z,99042.28
2022-12-07T20:59:50.640Z,99041.22
2022-12-07T21:02:18.634Z,99040.72
2022-12-07T21:04:46.512Z,99039.88
2022-12-07T21:07:14.087Z,99040.97
2022-12-07T21:09:42.343Z,99039.81
2022-12-07T21:12:11.493Z,99037.78
2022-12-07T21:14:39.562Z,99042.19
2022-12-07T21:17:06.904Z,99040.66
2022-12-07T21:19:34.383Z,99039.50
2022-12-07T21:22:01.668Z,99032.94
2022-12-07T21:24:28.858Z,99031.22
2022-12-07T21:26:56.348Z,99034.88
2022-12-07T21:29:40.711Z,99035.63
2022-12-07T21:32:10.231Z,99044.03
2022-12-07T21:34:37.443Z,99040.81
2022-12-07T21:37:04.680Z,99039.75
2022-12-07T21:39:32.094Z,99044.34
2022-12-07T21:41:59.221Z,99054.50
2022-12-07T21:44:26.367Z,99039.94
2022-12-07T21:46:54.078Z,99041.97
2022-12-07T21:49:21.264Z,99053.28
2022-12-07T21:51:48.382Z,99048.69
2022-12-07T21:54:15.808Z,99047.13
2022-12-07T21:56:43.066Z,99042.81
2022-12-07T21:59:14.547Z,99043.59
2022-12-07T22:01:45.268Z,99037.88
2022-12-07T22:04:17.260Z,99040.19
2022-12-07T22:06:44.574Z,99030.78
2022-12-07T22:09:11.848Z,99039.28
2022-12-07T22:11:40.568Z,99039.38
2022-12-07T22:14:26.384Z,99038.69
2022-12-07T22:16:55.012Z,99027.56
2022-12-07T22:19:22.212Z,99026.22
2022-12-07T22:21:49.389Z,99024.69
2022-12-07T22:24:16.862Z,99028.06
2022-12-07T22:26:44.162Z,99032.94
2022-12-07T22:29:11.633Z,99026.31
2022-12-07T22:31:45.969Z,99023.50
2022-12-07T22:34:17.042Z,99029.72
2022-12-07T22:36:44.725Z,99025.47
2022-12-07T22:39:12.065Z,99016.00
2022-12-07T22:41:39.228Z,99025.78
2022-12-07T22:44:07.612Z,99032.94
2022-12-07T22:46:34.938Z,99031.47
2022-12-07T22:49:02.577Z,99021.47
2022-12-07T22:51:31.501Z,99027.00
2022-12-07T22:54:05.039Z,99030.22
2022-12-07T22:56:33.496Z,99027.25
2022-12-07T22:59:00.915Z,99020.50
2022-12-07T23:01:28.106Z,99023.31
2022-12-07T23:03:55.919Z,99023.31
2022-12-07T23:06:27.080Z,99024.19
2022-12-07T23:08:55.973Z,99022.75
2022-12-07T23:11:42.667Z,99027.88
2022-12-07T23:14:11.139Z,99022.03
2022-12-07T23:16:38.675Z,99023.69
2022-12-07T23:19:05.869Z,99023.69
2022-12-07T23:21:33.154Z,99012.69
2022-12-07T23:24:00.699Z,99021.34
2022-12-07T23:26:27.838Z,99004.84
2022-12-07T23:28:55.040Z,99012.53
2022-12-07T23:31:22.487Z,99012.53
2022-12-07T23:33:49.691Z,99011.66
2022-12-07T23:36:18.086Z,99009.16
2022-12-07T23:38:46.765Z,99017.72
2022-12-07T23:41:15.886Z,99009.13
2022-12-07T23:43:44.402Z,99019.34
2022-12-07T23:46:13.081Z,99007.38
2022-12-07T23:48:40.307Z,99009.13
2022-12-07T23:51:07.811Z,99001.44
2022-12-07T23:53:35.501Z,99001.38
2022-12-07T23:56:03.391Z,99009.09
2022-12-07T23:58:30.589Z,99009.00
